createdAt,value
2023-05-04T00:04:25.098Z,62.79
2023-05-04T00:09:27.911Z,62.18
2023-05-04T00:14:30.654Z,64.04
2023-05-04T00:19:35.169Z,63.63
2023-05-04T00:24:38.669Z,63.23
2023-05-04T00:29:42.487Z,62.74
2023-05-04T00:34:46.581Z,60.99
2023-05-04T00:39:49.362Z,58.95
2023-05-04T00:44:52.181Z,58.76
2023-05-04T00:49:56.589Z,59.19
2023-05-04T00:55:03.227Z,58.90
2023-05-04T01:00:08.494Z,58.13
2023-05-04T01:05:13.450Z,58.45
2023-05-04T01:10:21.010Z,58.81
2023-05-04T01:15:24.273Z,59.06
2023-05-04T01:20:28.512Z,59.36
2023-05-04T01:25:36.888Z,59.70
2023-05-04T01:30:44.674Z,59.84
2023-05-04T01:35:47.963Z,59.43
2023-05-04T01:40:52.125Z,59.06
2023-05-04T01:45:54.961Z,59.49
2023-05-04T01:50:57.868Z,59.95
2023-05-04T01:56:01.970Z,59.75
2023-05-04T02:01:05.119Z,58.68
2023-05-04T02:06:08.472Z,59.16
2023-05-04T02:11:14.615Z,59.37
2023-05-04T02:16:17.521Z,59.68
2023-05-04T02:21:20.688Z,60.27
2023-05-04T02:26:25.036Z,60.42
2023-05-04T02:31:27.834Z,60.04
2023-05-04T02:36:30.725Z,60.23
2023-05-04T02:41:34.923Z,59.64
2023-05-04T02:46:37.664Z,61.18
2023-05-04T02:51:40.498Z,61.09
2023-05-04T02:56:45.157Z,61.25
2023-05-04T03:01:48.570Z,60.68
2023-05-04T03:06:51.464Z,61.36
2023-05-04T03:11:56.174Z,61.43
2023-05-04T03:16:59.425Z,63.16
2023-05-04T03:22:02.624Z,61.95
2023-05-04T03:27:07.491Z,62.00
2023-05-04T03:32:13.219Z,62.98
2023-05-04T03:37:16.977Z,63.55
2023-05-04T03:42:21.314Z,63.90
2023-05-04T03:47:24.202Z,64.08
2023-05-04T03:52:27.112Z,62.54
2023-05-04T03:57:31.572Z,62.81
2023-05-04T04:02:37.358Z,62.41
2023-05-04T04:07:41.773Z,63.05
2023-05-04T04:12:48.261Z,62.27
2023-05-04T04:17:51.096Z,61.04
2023-05-04T04:22:53.973Z,61.04
2023-05-04T04:27:58.613Z,61.53
2023-05-04T04:33:02.234Z,60.26
2023-05-04T04:38:22.554Z,59.46
2023-05-04T04:43:26.843Z,57.65
2023-05-04T04:48:29.784Z,55.97
2023-05-04T04:53:33.648Z,54.71
2023-05-04T04:58:37.909Z,54.08
2023-05-04T05:03:40.691Z,53.68
2023-05-04T05:08:43.910Z,52.78
2023-05-04T05:13:48.171Z,53.75
2023-05-04T05:18:51.041Z,53.51
2023-05-04T05:23:53.770Z,53.13
2023-05-04T05:28:57.950Z,53.93
2023-05-04T05:34:00.894Z,53.34
2023-05-04T05:39:03.690Z,53.58
2023-05-04T05:44:08.277Z,52.81
2023-05-04T05:49:11.471Z,52.28
2023-05-04T05:54:14.276Z,50.92
2023-05-04T05:59:18.418Z,48.49
2023-05-04T06:04:21.166Z,46.25
2023-05-04T06:09:23.997Z,44.99
2023-05-04T06:14:28.107Z,44.73
2023-05-04T06:19:31.618Z,43.81
2023-05-04T06:24:34.409Z,44.11
2023-05-04T06:29:40.695Z,44.38
2023-05-04T06:34:45.424Z,45.57
2023-05-04T06:39:48.573Z,43.32
2023-05-04T06:44:53.238Z,42.88
2023-05-04T06:49:56.071Z,41.77
2023-05-04T06:55:00.029Z,41.16
2023-05-04T07:00:05.322Z,39.85
2023-05-04T07:05:09.035Z,40.81
2023-05-04T07:10:12.165Z,39.80
2023-05-04T07:15:16.717Z,37.97
2023-05-04T07:20:22.863Z,35.15
2023-05-04T07:25:28.063Z,37.20
2023-05-04T07:30:32.344Z,38.06
2023-05-04T07:35:35.124Z,38.03
2023-05-04T07:40:37.889Z,37.53
2023-05-04T07:45:42.282Z,34.70
2023-05-04T07:50:45.242Z,33.08
2023-05-04T07:55:48.295Z,34.56
2023-05-04T08:00:52.601Z,36.13
2023-05-04T08:05:55.737Z,35.67
2023-05-04T08:11:11.628Z,36.20
2023-05-04T08:16:17.238Z,37.37
2023-05-04T08:21:20.950Z,40.18
2023-05-04T08:26:24.416Z,41.32
2023-05-04T08:31:28.645Z,41.71
2023-05-04T08:36:31.759Z,40.67
2023-05-04T08:41:34.692Z,40.54
2023-05-04T08:46:38.966Z,41.37
2023-05-04T08:51:43.679Z,40.06
2023-05-04T08:56:47.593Z,40.08
2023-05-04T09:01:57.040Z,40.15
2023-05-04T09:06:59.902Z,40.87
2023-05-04T09:12:02.724Z,41.21
2023-05-04T09:17:16.355Z,40.73
2023-05-04T09:22:20.378Z,40.41
2023-05-04T09:27:23.398Z,41.39
2023-05-04T09:32:28.939Z,41.36
2023-05-04T09:37:31.783Z,39.83
2023-05-04T09:42:34.521Z,38.69
2023-05-04T09:47:39.949Z,39.39
2023-05-04T09:52:44.009Z,39.16
2023-05-04T09:57:48.328Z,37.95
2023-05-04T10:02:53.254Z,36.44
2023-05-04T10:08:00.101Z,37.75
2023-05-04T10:13:03.235Z,35.90
2023-05-04T10:18:19.537Z,36.53
2023-05-04T10:23:49.289Z,36.37
2023-05-04T10:29:02.206Z,36.00
2023-05-04T10:34:06.685Z,37.38
2023-05-04T10:39:19.723Z,37.46
2023-05-04T10:44:22.471Z,36.45
2023-05-04T10:49:26.868Z,37.02
2023-05-04T10:54:29.749Z,36.13
2023-05-04T10:59:34.245Z,36.43
2023-05-04T11:04:40.322Z,36.97
2023-05-04T11:09:44.386Z,35.63
2023-05-04T11:14:47.144Z,35.19
2023-05-04T11:19:53.002Z,34.04
2023-05-04T11:24:56.338Z,35.33
2023-05-04T11:30:00.366Z,36.25
2023-05-04T11:35:06.391Z,35.17
2023-05-04T11:40:11.825Z,35.07
2023-05-04T11:45:16.986Z,33.64
2023-05-04T11:50:22.221Z,33.29
2023-05-04T11:55:30.481Z,33.74
2023-05-04T12:00:41.561Z,33.88
2023-05-04T12:05:49.329Z,35.05
2023-05-04T12:10:52.108Z,34.34
2023-05-04T12:15:54.963Z,33.53
2023-05-04T12:21:08.898Z,34.39
2023-05-04T12:26:13.251Z,34.79
2023-05-04T12:31:16.148Z,34.93
2023-05-04T12:36:20.553Z,34.34
2023-05-04T12:41:23.372Z,34.21
2023-05-04T12:46:26.168Z,34.94
2023-05-04T12:51:32.064Z,34.23
2023-05-04T12:56:35.063Z,33.13
2023-05-04T13:01:37.891Z,32.72
2023-05-04T13:06:43.841Z,34.21
2023-05-04T13:11:47.547Z,34.70
2023-05-04T13:16:51.183Z,33.81
2023-05-04T13:21:55.923Z,34.10
2023-05-04T13:26:59.382Z,32.95
2023-05-04T13:32:02.746Z,32.83
2023-05-04T13:37:07.288Z,32.95
2023-05-04T13:42:10.123Z,33.77
2023-05-04T13:47:13.684Z,34.04
2023-05-04T13:52:17.879Z,34.78
2023-05-04T13:57:20.581Z,34.09
2023-05-04T14:02:23.601Z,34.20
2023-05-04T14:07:28.006Z,33.91
2023-05-04T14:12:31.829Z,32.22
2023-05-04T14:17:34.732Z,32.68
2023-05-04T14:22:41.085Z,32.72
2023-05-04T14:27:44.291Z,32.90
2023-05-04T14:32:47.263Z,33.26
2023-05-04T14:37:51.460Z,32.44
2023-05-04T14:42:54.202Z,31.72
2023-05-04T14:47:57.044Z,32.60
2023-05-04T14:53:01.180Z,33.04
2023-05-04T14:58:03.909Z,33.23
2023-05-04T15:03:07.257Z,32.41
2023-05-04T15:08:11.438Z,33.16
2023-05-04T15:13:15.838Z,33.14
2023-05-04T15:18:18.849Z,32.83
2023-05-04T15:23:22.959Z,32.85
2023-05-04T15:28:26.152Z,33.26
2023-05-04T15:33:28.915Z,33.50
2023-05-04T15:38:33.086Z,33.71
2023-05-04T15:43:36.142Z,33.29
2023-05-04T15:48:38.997Z,33.75
2023-05-04T15:53:43.196Z,33.31
2023-05-04T15:58:46.260Z,33.84
2023-05-04T16:03:49.134Z,34.04
2023-05-04T16:08:53.366Z,33.70
2023-05-04T16:13:56.699Z,36.53
2023-05-04T16:18:59.577Z,38.65
2023-05-04T16:24:03.702Z,40.21
2023-05-04T16:29:06.783Z,39.85
2023-05-04T16:34:09.564Z,41.15
2023-05-04T16:39:14.642Z,41.72
2023-05-04T16:44:17.584Z,42.89
2023-05-04T16:49:21.392Z,43.85
2023-05-04T16:54:26.064Z,45.00
2023-05-04T16:59:29.311Z,44.86
2023-05-04T17:04:32.334Z,45.58
2023-05-04T17:09:36.787Z,45.52
2023-05-04T17:14:39.582Z,45.89
2023-05-04T17:19:42.436Z,45.53
2023-05-04T17:24:46.613Z,45.10
2023-05-04T17:29:49.456Z,46.15
2023-05-04T17:34:52.297Z,46.14
2023-05-04T17:39:56.999Z,45.63
2023-05-04T17:44:59.912Z,46.38
2023-05-04T17:50:04.610Z,45.90
2023-05-04T17:55:09.871Z,46.43
2023-05-04T18:00:14.333Z,47.94
2023-05-04T18:05:17.524Z,46.90
2023-05-04T18:10:21.950Z,47.28
2023-05-04T18:15:25.099Z,48.24
2023-05-04T18:20:28.574Z,48.87
2023-05-04T18:26:00.386Z,49.53
2023-05-04T18:31:33.406Z,49.59
2023-05-04T18:36:40.754Z,49.89
2023-05-04T18:41:46.156Z,49.77
2023-05-04T18:46:52.762Z,50.43
2023-05-04T18:52:06.291Z,51.35
2023-05-04T18:57:14.514Z,50.59
2023-05-04T19:02:17.560Z,50.63
2023-05-04T19:07:20.477Z,50.46
2023-05-04T19:12:24.939Z,51.23
2023-05-04T19:17:28.062Z,51.08
2023-05-04T19:22:31.938Z,51.33
2023-05-04T19:27:36.371Z,51.81
2023-05-04T19:32:39.589Z,51.25
2023-05-04T19:37:42.770Z,51.65
2023-05-04T19:43:00.653Z,52.03
2023-05-04T19:48:06.577Z,51.79
2023-05-04T19:53:09.530Z,52.65
2023-05-04T19:58:16.464Z,53.34
2023-05-04T20:03:22.534Z,53.34
2023-05-04T20:08:26.844Z,53.94
2023-05-04T20:13:31.172Z,54.24
2023-05-04T20:18:34.205Z,55.27
2023-05-04T20:23:37.268Z,55.88
2023-05-04T20:28:41.463Z,57.74
2023-05-04T20:33:44.443Z,59.32
2023-05-04T20:38:50.480Z,59.44
2023-05-04T20:43:54.653Z,61.00
2023-05-04T20:49:02.800Z,61.30
2023-05-04T20:54:08.594Z,61.06
2023-05-04T20:59:12.773Z,61.94
2023-05-04T21:04:17.549Z,61.84
2023-05-04T21:09:21.554Z,62.70
2023-05-04T21:14:25.792Z,62.03
2023-05-04T21:19:29.331Z,62.56
2023-05-04T21:24:33.125Z,62.32
2023-05-04T21:29:38.309Z,60.14
2023-05-04T21:34:41.142Z,61.45
2023-05-04T21:39:43.912Z,60.75
2023-05-04T21:44:48.012Z,60.69
2023-05-04T21:49:51.560Z,60.65
2023-05-04T21:54:54.284Z,60.37
2023-05-04T21:59:58.469Z,58.59
2023-05-04T22:05:01.228Z,57.30
2023-05-04T22:10:04.303Z,56.78
2023-05-04T22:15:10.602Z,56.30
2023-05-04T22:20:14.230Z,55.74
2023-05-04T22:25:18.422Z,54.88
2023-05-04T22:30:23.025Z,53.39
2023-05-04T22:35:25.778Z,53.09
2023-05-04T22:40:28.527Z,52.91
2023-05-04T22:45:35.658Z,53.06
2023-05-04T22:50:39.034Z,52.80
2023-05-04T22:55:42.142Z,52.56
2023-05-04T23:00:47.881Z,52.18
2023-05-04T23:05:50.623Z,52.29
2023-05-04T23:10:53.479Z,51.76
2023-05-04T23:15:57.755Z,52.16
2023-05-04T23:21:00.550Z,51.66
2023-05-04T23:26:03.262Z,51.92
2023-05-04T23:31:07.494Z,51.45
2023-05-04T23:36:10.573Z,51.54
2023-05-04T23:41:13.357Z,51.36
2023-05-04T23:46:17.552Z,51.01
2023-05-04T23:51:21.200Z,50.90
2023-05-04T23:56:24.036Z,50.91
